sensor_id;sensor_type;location;lat;lon;timestamp;P1;durP1;ratioP1;P2;durP2;ratioP2
47912;SDS011;33676;51.006;17.180;2023-11-19T00:02:18;45.10;;;31.70;;
47912;SDS011;33676;51.006;17.180;2023-11-19T00:04:47;31.20;;;24.30;;
47912;SDS011;33676;51.006;17.180;2023-11-19T00:14:09;46.50;;;30.40;;
47912;SDS011;33676;51.006;17.180;2023-11-19T00:20:06;30.60;;;23.90;;
47912;SDS011;33676;51.006;17.180;2023-11-19T00:22:38;28.30;;;22.40;;
47912;SDS011;33676;51.006;17.180;2023-11-19T00:25:15;31.10;;;24.30;;
47912;SDS011;33676;51.006;17.180;2023-11-19T00:27:44;32.00;;;25.20;;
47912;SDS011;33676;51.006;17.180;2023-11-19T00:55:41;25.80;;;19.90;;
47912;SDS011;33676;51.006;17.180;2023-11-19T00:58:13;26.70;;;23.70;;
47912;SDS011;33676;51.006;17.180;2023-11-19T01:00:41;31.50;;;21.30;;
47912;SDS011;33676;51.006;17.180;2023-11-19T01:03:13;30.00;;;22.10;;
47912;SDS011;33676;51.006;17.180;2023-11-19T01:05:44;29.80;;;23.00;;
47912;SDS011;33676;51.006;17.180;2023-11-19T01:08:15;32.50;;;20.50;;
47912;SDS011;33676;51.006;17.180;2023-11-19T01:10:44;30.80;;;20.60;;
47912;SDS011;33676;51.006;17.180;2023-11-19T01:13:16;27.50;;;20.50;;
47912;SDS011;33676;51.006;17.180;2023-11-19T01:15:45;29.30;;;22.50;;
47912;SDS011;33676;51.006;17.180;2023-11-19T01:18:15;29.60;;;21.50;;
47912;SDS011;33676;51.006;17.180;2023-11-19T01:20:45;27.30;;;21.10;;
47912;SDS011;33676;51.006;17.180;2023-11-19T01:23:17;28.60;;;21.30;;
47912;SDS011;33676;51.006;17.180;2023-11-19T01:25:46;30.20;;;23.50;;
47912;SDS011;33676;51.006;17.180;2023-11-19T01:28:20;27.40;;;20.90;;
47912;SDS011;33676;51.006;17.180;2023-11-19T01:30:52;32.10;;;24.90;;
47912;SDS011;33676;51.006;17.180;2023-11-19T01:33:21;33.50;;;23.30;;
47912;SDS011;33676;51.006;17.180;2023-11-19T01:36:03;34.40;;;25.20;;
47912;SDS011;33676;51.006;17.180;2023-11-19T01:38:35;28.30;;;21.00;;
47912;SDS011;33676;51.006;17.180;2023-11-19T01:41:05;29.50;;;21.60;;
47912;SDS011;33676;51.006;17.180;2023-11-19T01:43:39;29.00;;;25.30;;
47912;SDS011;33676;51.006;17.180;2023-11-19T01:46:23;30.90;;;20.70;;
47912;SDS011;33676;51.006;17.180;2023-11-19T01:48:53;31.30;;;21.80;;
47912;SDS011;33676;51.006;17.180;2023-11-19T01:51:23;36.40;;;25.00;;
47912;SDS011;33676;51.006;17.180;2023-11-19T01:53:53;32.00;;;24.40;;
47912;SDS011;33676;51.006;17.180;2023-11-19T01:56:37;30.40;;;23.20;;
47912;SDS011;33676;51.006;17.180;2023-11-19T01:59:11;31.20;;;26.30;;
47912;SDS011;33676;51.006;17.180;2023-11-19T02:01:42;30.90;;;21.80;;
47912;SDS011;33676;51.006;17.180;2023-11-19T02:04:12;31.50;;;22.40;;
47912;SDS011;33676;51.006;17.180;2023-11-19T02:06:51;30.30;;;23.20;;
47912;SDS011;33676;51.006;17.180;2023-11-19T02:11:42;33.00;;;24.10;;
47912;SDS011;33676;51.006;17.180;2023-11-19T02:14:30;34.60;;;24.50;;
47912;SDS011;33676;51.006;17.180;2023-11-19T02:17:02;35.40;;;25.70;;
47912;SDS011;33676;51.006;17.180;2023-11-19T02:19:31;31.60;;;24.50;;
47912;SDS011;33676;51.006;17.180;2023-11-19T02:22:00;32.00;;;23.40;;
47912;SDS011;33676;51.006;17.180;2023-11-19T02:24:32;35.50;;;26.40;;
47912;SDS011;33676;51.006;17.180;2023-11-19T02:27:24;35.40;;;24.00;;
47912;SDS011;33676;51.006;17.180;2023-11-19T02:30:14;32.10;;;25.10;;
47912;SDS011;33676;51.006;17.180;2023-11-19T02:33:21;34.80;;;24.90;;
47912;SDS011;33676;51.006;17.180;2023-11-19T02:35:54;39.50;;;25.70;;
47912;SDS011;33676;51.006;17.180;2023-11-19T02:38:56;33.40;;;24.20;;
47912;SDS011;33676;51.006;17.180;2023-11-19T02:41:38;31.80;;;25.00;;
47912;SDS011;33676;51.006;17.180;2023-11-19T02:45:03;37.50;;;26.00;;
47912;SDS011;33676;51.006;17.180;2023-11-19T02:47:51;32.50;;;23.20;;
47912;SDS011;33676;51.006;17.180;2023-11-19T02:50:31;37.30;;;27.80;;
47912;SDS011;33676;51.006;17.180;2023-11-19T02:53:07;37.70;;;24.80;;
47912;SDS011;33676;51.006;17.180;2023-11-19T02:55:38;31.20;;;23.50;;
47912;SDS011;33676;51.006;17.180;2023-11-19T02:58:21;36.00;;;25.80;;
47912;SDS011;33676;51.006;17.180;2023-11-19T03:00:53;37.30;;;27.10;;
47912;SDS011;33676;51.006;17.180;2023-11-19T03:03:57;36.40;;;24.80;;
47912;SDS011;33676;51.006;17.180;2023-11-19T03:06:31;31.70;;;23.00;;
47912;SDS011;33676;51.006;17.180;2023-11-19T03:09:06;34.50;;;25.50;;
47912;SDS011;33676;51.006;17.180;2023-11-19T03:12:12;34.20;;;24.50;;
47912;SDS011;33676;51.006;17.180;2023-11-19T03:14:47;30.90;;;24.00;;
47912;SDS011;33676;51.006;17.180;2023-11-19T03:17:19;32.00;;;23.80;;
47912;SDS011;33676;51.006;17.180;2023-11-19T03:19:48;32.10;;;21.80;;
47912;SDS011;33676;51.006;17.180;2023-11-19T03:22:16;35.70;;;25.70;;
47912;SDS011;33676;51.006;17.180;2023-11-19T03:31:46;35.60;;;24.90;;
47912;SDS011;33676;51.006;17.180;2023-11-19T03:34:19;30.70;;;24.90;;
47912;SDS011;33676;51.006;17.180;2023-11-19T03:36:49;34.00;;;26.00;;
47912;SDS011;33676;51.006;17.180;2023-11-19T03:39:18;31.10;;;25.30;;
47912;SDS011;33676;51.006;17.180;2023-11-19T03:42:19;34.10;;;24.60;;
47912;SDS011;33676;51.006;17.180;2023-11-19T03:44:48;29.50;;;21.10;;
47912;SDS011;33676;51.006;17.180;2023-11-19T03:47:18;25.50;;;21.10;;
47912;SDS011;33676;51.006;17.180;2023-11-19T03:49:53;34.40;;;23.60;;
47912;SDS011;33676;51.006;17.180;2023-11-19T03:52:23;36.20;;;24.20;;
47912;SDS011;33676;51.006;17.180;2023-11-19T03:54:56;33.70;;;25.00;;
47912;SDS011;33676;51.006;17.180;2023-11-19T03:57:30;33.50;;;23.40;;
47912;SDS011;33676;51.006;17.180;2023-11-19T04:00:07;32.10;;;21.20;;
47912;SDS011;33676;51.006;17.180;2023-11-19T04:02:42;26.10;;;21.70;;
47912;SDS011;33676;51.006;17.180;2023-11-19T04:05:12;28.90;;;21.30;;
47912;SDS011;33676;51.006;17.180;2023-11-19T04:07:41;24.80;;;19.40;;
47912;SDS011;33676;51.006;17.180;2023-11-19T04:10:09;30.10;;;20.50;;
47912;SDS011;33676;51.006;17.180;2023-11-19T04:19:38;27.50;;;22.00;;
47912;SDS011;33676;51.006;17.180;2023-11-19T04:25:15;25.60;;;19.10;;
47912;SDS011;33676;51.006;17.180;2023-11-19T04:27:46;28.60;;;21.10;;
47912;SDS011;33676;51.006;17.180;2023-11-19T04:30:19;28.10;;;20.40;;
47912;SDS011;33676;51.006;17.180;2023-11-19T04:32:48;28.40;;;20.60;;
47912;SDS011;33676;51.006;17.180;2023-11-19T04:35:18;26.10;;;20.50;;
47912;SDS011;33676;51.006;17.180;2023-11-19T04:37:47;21.30;;;17.30;;
47912;SDS011;33676;51.006;17.180;2023-11-19T04:40:17;24.20;;;19.40;;
47912;SDS011;33676;51.006;17.180;2023-11-19T04:42:53;25.30;;;18.20;;
47912;SDS011;33676;51.006;17.180;2023-11-19T04:45:39;22.30;;;17.60;;
47912;SDS011;33676;51.006;17.180;2023-11-19T04:48:08;30.30;;;18.50;;
47912;SDS011;33676;51.006;17.180;2023-11-19T04:50:37;23.40;;;18.30;;
47912;SDS011;33676;51.006;17.180;2023-11-19T04:53:22;22.60;;;16.80;;
47912;SDS011;33676;51.006;17.180;2023-11-19T04:55:53;23.00;;;17.20;;
47912;SDS011;33676;51.006;17.180;2023-11-19T04:58:25;26.10;;;19.00;;
47912;SDS011;33676;51.006;17.180;2023-11-19T05:00:57;23.00;;;17.30;;
47912;SDS011;33676;51.006;17.180;2023-11-19T05:04:04;19.20;;;14.70;;
47912;SDS011;33676;51.006;17.180;2023-11-19T05:07:22;19.40;;;16.20;;
47912;SDS011;33676;51.006;17.180;2023-11-19T05:09:51;21.40;;;16.10;;
47912;SDS011;33676;51.006;17.180;2023-11-19T05:12:33;23.30;;;16.10;;
47912;SDS011;33676;51.006;17.180;2023-11-19T05:15:05;25.80;;;18.10;;
47912;SDS011;33676;51.006;17.180;2023-11-19T05:17:38;37.00;;;26.80;;
47912;SDS011;33676;51.006;17.180;2023-11-19T05:20:34;26.00;;;19.50;;
47912;SDS011;33676;51.006;17.180;2023-11-19T05:23:31;74.40;;;42.40;;
47912;SDS011;33676;51.006;17.180;2023-11-19T05:26:08;44.70;;;30.10;;
47912;SDS011;33676;51.006;17.180;2023-11-19T05:29:10;87.50;;;46.20;;
47912;SDS011;33676;51.006;17.180;2023-11-19T05:32:08;43.60;;;25.70;;
47912;SDS011;33676;51.006;17.180;2023-11-19T05:35:23;65.40;;;33.60;;
47912;SDS011;33676;51.006;17.180;2023-11-19T05:38:11;38.20;;;24.10;;
47912;SDS011;33676;51.006;17.180;2023-11-19T05:40:41;33.80;;;23.20;;
47912;SDS011;33676;51.006;17.180;2023-11-19T05:44:21;43.50;;;29.10;;
47912;SDS011;33676;51.006;17.180;2023-11-19T05:47:08;27.60;;;18.80;;
47912;SDS011;33676;51.006;17.180;2023-11-19T05:49:39;28.80;;;19.50;;
47912;SDS011;33676;51.006;17.180;2023-11-19T05:52:34;29.00;;;21.70;;
47912;SDS011;33676;51.006;17.180;2023-11-19T05:55:24;20.30;;;14.50;;
47912;SDS011;33676;51.006;17.180;2023-11-19T05:57:57;27.20;;;19.50;;
47912;SDS011;33676;51.006;17.180;2023-11-19T06:00:51;21.50;;;16.40;;
47912;SDS011;33676;51.006;17.180;2023-11-19T06:03:24;19.90;;;15.40;;
47912;SDS011;33676;51.006;17.180;2023-11-19T06:06:26;20.00;;;15.70;;
47912;SDS011;33676;51.006;17.180;2023-11-19T06:09:34;16.90;;;13.10;;
47912;SDS011;33676;51.006;17.180;2023-11-19T06:12:31;15.90;;;13.20;;
47912;SDS011;33676;51.006;17.180;2023-11-19T06:15:09;18.40;;;13.30;;
47912;SDS011;33676;51.006;17.180;2023-11-19T06:18:14;18.30;;;13.70;;
47912;SDS011;33676;51.006;17.180;2023-11-19T06:20:43;19.80;;;14.80;;
47912;SDS011;33676;51.006;17.180;2023-11-19T06:23:29;18.10;;;13.50;;
47912;SDS011;33676;51.006;17.180;2023-11-19T06:26:03;16.90;;;13.40;;
47912;SDS011;33676;51.006;17.180;2023-11-19T06:28:34;18.50;;;14.30;;
47912;SDS011;33676;51.006;17.180;2023-11-19T06:31:07;17.30;;;13.70;;
47912;SDS011;33676;51.006;17.180;2023-11-19T06:33:37;20.50;;;13.90;;
47912;SDS011;33676;51.006;17.180;2023-11-19T06:36:06;15.90;;;12.20;;
47912;SDS011;33676;51.006;17.180;2023-11-19T06:38:35;20.40;;;12.50;;
47912;SDS011;33676;51.006;17.180;2023-11-19T06:41:07;20.50;;;14.80;;
47912;SDS011;33676;51.006;17.180;2023-11-19T06:43:37;18.60;;;13.80;;
47912;SDS011;33676;51.006;17.180;2023-11-19T06:46:45;19.60;;;12.10;;
47912;SDS011;33676;51.006;17.180;2023-11-19T06:49:14;14.50;;;12.80;;
47912;SDS011;33676;51.006;17.180;2023-11-19T06:51:42;16.30;;;13.00;;
47912;SDS011;33676;51.006;17.180;2023-11-19T06:54:12;15.60;;;13.60;;
47912;SDS011;33676;51.006;17.180;2023-11-19T06:56:42;18.90;;;14.00;;
47912;SDS011;33676;51.006;17.180;2023-11-19T07:12:56;19.80;;;15.40;;
47912;SDS011;33676;51.006;17.180;2023-11-19T07:15:26;22.30;;;15.40;;
47912;SDS011;33676;51.006;17.180;2023-11-19T07:17:54;20.30;;;14.60;;
47912;SDS011;33676;51.006;17.180;2023-11-19T07:20:25;23.20;;;16.80;;
47912;SDS011;33676;51.006;17.180;2023-11-19T07:22:56;55.10;;;34.80;;
47912;SDS011;33676;51.006;17.180;2023-11-19T07:25:25;32.30;;;22.80;;
47912;SDS011;33676;51.006;17.180;2023-11-19T07:27:54;27.90;;;18.90;;
47912;SDS011;33676;51.006;17.180;2023-11-19T07:30:24;37.90;;;25.70;;
47912;SDS011;33676;51.006;17.180;2023-11-19T07:32:54;69.70;;;40.40;;
47912;SDS011;33676;51.006;17.180;2023-11-19T07:35:39;66.70;;;44.20;;
47912;SDS011;33676;51.006;17.180;2023-11-19T07:38:12;40.60;;;26.00;;
47912;SDS011;33676;51.006;17.180;2023-11-19T07:40:43;36.10;;;23.20;;
47912;SDS011;33676;51.006;17.180;2023-11-19T07:43:19;27.80;;;18.70;;
47912;SDS011;33676;51.006;17.180;2023-11-19T07:45:48;33.40;;;20.10;;
47912;SDS011;33676;51.006;17.180;2023-11-19T07:48:19;22.10;;;16.30;;
47912;SDS011;33676;51.006;17.180;2023-11-19T07:50:52;31.90;;;22.00;;
47912;SDS011;33676;51.006;17.180;2023-11-19T07:53:21;52.50;;;35.70;;
47912;SDS011;33676;51.006;17.180;2023-11-19T07:55:50;33.10;;;22.50;;
47912;SDS011;33676;51.006;17.180;2023-11-19T07:58:25;22.30;;;15.70;;
47912;SDS011;33676;51.006;17.180;2023-11-19T08:00:56;24.10;;;16.50;;
47912;SDS011;33676;51.006;17.180;2023-11-19T08:03:25;23.60;;;15.60;;
47912;SDS011;33676;51.006;17.180;2023-11-19T08:05:56;43.90;;;29.70;;
47912;SDS011;33676;51.006;17.180;2023-11-19T08:08:25;21.40;;;17.20;;
47912;SDS011;33676;51.006;17.180;2023-11-19T08:10:54;26.80;;;21.80;;
47912;SDS011;33676;51.006;17.180;2023-11-19T08:13:24;19.60;;;15.00;;
47912;SDS011;33676;51.006;17.180;2023-11-19T08:15:53;28.60;;;20.70;;
47912;SDS011;33676;51.006;17.180;2023-11-19T08:18:21;21.20;;;16.20;;
47912;SDS011;33676;51.006;17.180;2023-11-19T08:20:50;19.30;;;14.90;;
47912;SDS011;33676;51.006;17.180;2023-11-19T08:23:21;20.30;;;17.60;;
47912;SDS011;33676;51.006;17.180;2023-11-19T08:25:51;22.50;;;15.40;;
47912;SDS011;33676;51.006;17.180;2023-11-19T08:28:20;18.70;;;14.30;;
47912;SDS011;33676;51.006;17.180;2023-11-19T08:30:49;17.80;;;15.00;;
47912;SDS011;33676;51.006;17.180;2023-11-19T08:33:18;17.40;;;15.00;;
47912;SDS011;33676;51.006;17.180;2023-11-19T08:35:47;23.20;;;16.90;;
47912;SDS011;33676;51.006;17.180;2023-11-19T08:38:15;16.60;;;13.20;;
47912;SDS011;33676;51.006;17.180;2023-11-19T08:41:00;17.40;;;13.20;;
47912;SDS011;33676;51.006;17.180;2023-11-19T08:43:29;19.70;;;14.70;;
47912;SDS011;33676;51.006;17.180;2023-11-19T08:46:00;19.40;;;14.90;;
47912;SDS011;33676;51.006;17.180;2023-11-19T08:48:28;16.00;;;14.10;;
47912;SDS011;33676;51.006;17.180;2023-11-19T08:50:57;18.90;;;14.50;;
47912;SDS011;33676;51.006;17.180;2023-11-19T08:53:25;17.80;;;15.90;;
47912;SDS011;33676;51.006;17.180;2023-11-19T08:55:57;17.20;;;14.30;;
47912;SDS011;33676;51.006;17.180;2023-11-19T08:58:26;19.90;;;14.60;;
47912;SDS011;33676;51.006;17.180;2023-11-19T09:00:57;19.40;;;13.90;;
47912;SDS011;33676;51.006;17.180;2023-11-19T09:03:27;18.00;;;13.60;;
47912;SDS011;33676;51.006;17.180;2023-11-19T09:06:00;15.50;;;13.70;;
47912;SDS011;33676;51.006;17.180;2023-11-19T09:08:30;20.80;;;14.10;;
47912;SDS011;33676;51.006;17.180;2023-11-19T09:10:58;28.70;;;20.00;;
47912;SDS011;33676;51.006;17.180;2023-11-19T09:13:27;37.40;;;25.50;;
47912;SDS011;33676;51.006;17.180;2023-11-19T09:15:55;32.60;;;22.70;;
47912;SDS011;33676;51.006;17.180;2023-11-19T09:18:27;26.10;;;18.50;;
47912;SDS011;33676;51.006;17.180;2023-11-19T09:20:55;21.50;;;15.80;;
47912;SDS011;33676;51.006;17.180;2023-11-19T09:23:24;35.20;;;26.20;;
47912;SDS011;33676;51.006;17.180;2023-11-19T09:25:53;23.20;;;16.00;;
47912;SDS011;33676;51.006;17.180;2023-11-19T09:28:22;23.70;;;17.00;;
47912;SDS011;33676;51.006;17.180;2023-11-19T09:30:50;25.50;;;16.60;;
47912;SDS011;33676;51.006;17.180;2023-11-19T09:33:19;30.70;;;19.50;;
47912;SDS011;33676;51.006;17.180;2023-11-19T09:35:49;37.70;;;26.00;;
47912;SDS011;33676;51.006;17.180;2023-11-19T09:38:21;30.80;;;18.60;;
47912;SDS011;33676;51.006;17.180;2023-11-19T09:40:50;23.50;;;16.50;;
47912;SDS011;33676;51.006;17.180;2023-11-19T09:43:18;19.10;;;15.00;;
47912;SDS011;33676;51.006;17.180;2023-11-19T09:45:48;11.80;;;9.80;;
47912;SDS011;33676;51.006;17.180;2023-11-19T09:48:18;17.80;;;14.10;;
47912;SDS011;33676;51.006;17.180;2023-11-19T09:50:48;19.50;;;14.20;;
47912;SDS011;33676;51.006;17.180;2023-11-19T09:53:17;9.60;;;8.30;;
47912;SDS011;33676;51.006;17.180;2023-11-19T09:55:46;10.00;;;8.90;;
47912;SDS011;33676;51.006;17.180;2023-11-19T09:58:14;10.30;;;8.30;;
47912;SDS011;33676;51.006;17.180;2023-11-19T10:00:43;13.90;;;11.10;;
47912;SDS011;33676;51.006;17.180;2023-11-19T10:03:20;10.30;;;7.80;;
47912;SDS011;33676;51.006;17.180;2023-11-19T10:05:51;10.00;;;7.40;;
47912;SDS011;33676;51.006;17.180;2023-11-19T10:08:20;8.50;;;6.60;;
47912;SDS011;33676;51.006;17.180;2023-11-19T10:10:48;8.30;;;7.40;;
47912;SDS011;33676;51.006;17.180;2023-11-19T10:13:17;10.80;;;7.70;;
47912;SDS011;33676;51.006;17.180;2023-11-19T10:15:46;9.40;;;7.40;;
47912;SDS011;33676;51.006;17.180;2023-11-19T10:18:15;7.00;;;6.30;;
47912;SDS011;33676;51.006;17.180;2023-11-19T10:20:45;8.50;;;7.30;;
47912;SDS011;33676;51.006;17.180;2023-11-19T10:23:13;10.20;;;8.10;;
47912;SDS011;33676;51.006;17.180;2023-11-19T10:25:42;9.10;;;7.80;;
47912;SDS011;33676;51.006;17.180;2023-11-19T10:28:11;13.10;;;11.50;;
47912;SDS011;33676;51.006;17.180;2023-11-19T10:30:39;10.20;;;9.20;;
47912;SDS011;33676;51.006;17.180;2023-11-19T10:33:13;10.90;;;9.30;;
47912;SDS011;33676;51.006;17.180;2023-11-19T10:35:58;11.30;;;10.00;;
47912;SDS011;33676;51.006;17.180;2023-11-19T10:38:30;10.10;;;7.60;;
47912;SDS011;33676;51.006;17.180;2023-11-19T10:40:59;9.70;;;7.90;;
47912;SDS011;33676;51.006;17.180;2023-11-19T10:43:27;9.00;;;7.50;;
47912;SDS011;33676;51.006;17.180;2023-11-19T10:46:10;8.90;;;7.90;;
47912;SDS011;33676;51.006;17.180;2023-11-19T10:48:40;11.00;;;7.80;;
47912;SDS011;33676;51.006;17.180;2023-11-19T10:51:09;8.60;;;7.50;;
47912;SDS011;33676;51.006;17.180;2023-11-19T10:53:38;11.50;;;9.70;;
47912;SDS011;33676;51.006;17.180;2023-11-19T10:56:11;8.60;;;7.70;;
47912;SDS011;33676;51.006;17.180;2023-11-19T10:58:42;8.90;;;8.00;;
47912;SDS011;33676;51.006;17.180;2023-11-19T11:01:20;12.10;;;9.20;;
47912;SDS011;33676;51.006;17.180;2023-11-19T11:03:51;9.60;;;8.50;;
47912;SDS011;33676;51.006;17.180;2023-11-19T11:06:22;9.60;;;8.40;;
47912;SDS011;33676;51.006;17.180;2023-11-19T11:08:51;8.20;;;7.40;;
47912;SDS011;33676;51.006;17.180;2023-11-19T11:11:20;9.30;;;8.40;;
47912;SDS011;33676;51.006;17.180;2023-11-19T11:13:54;8.00;;;6.90;;
47912;SDS011;33676;51.006;17.180;2023-11-19T11:16:24;8.10;;;6.30;;
47912;SDS011;33676;51.006;17.180;2023-11-19T11:18:53;8.30;;;5.70;;
47912;SDS011;33676;51.006;17.180;2023-11-19T11:21:24;6.70;;;5.10;;
47912;SDS011;33676;51.006;17.180;2023-11-19T11:37:15;4.90;;;4.40;;
47912;SDS011;33676;51.006;17.180;2023-11-19T11:39:47;3.70;;;3.50;;
47912;SDS011;33676;51.006;17.180;2023-11-19T11:42:31;4.20;;;2.60;;
47912;SDS011;33676;51.006;17.180;2023-11-19T11:45:02;3.60;;;3.10;;
47912;SDS011;33676;51.006;17.180;2023-11-19T11:50:18;4.00;;;3.20;;
47912;SDS011;33676;51.006;17.180;2023-11-19T11:58:26;4.60;;;4.10;;
47912;SDS011;33676;51.006;17.180;2023-11-19T12:01:01;3.80;;;3.10;;
47912;SDS011;33676;51.006;17.180;2023-11-19T12:03:34;3.00;;;2.70;;
47912;SDS011;33676;51.006;17.180;2023-11-19T12:06:05;3.70;;;3.40;;
47912;SDS011;33676;51.006;17.180;2023-11-19T12:08:36;3.80;;;2.60;;
47912;SDS011;33676;51.006;17.180;2023-11-19T12:11:10;2.80;;;2.50;;
47912;SDS011;33676;51.006;17.180;2023-11-19T12:13:46;4.60;;;3.70;;
47912;SDS011;33676;51.006;17.180;2023-11-19T12:16:24;4.20;;;3.80;;
47912;SDS011;33676;51.006;17.180;2023-11-19T12:18:52;5.20;;;4.40;;
47912;SDS011;33676;51.006;17.180;2023-11-19T12:21:28;4.10;;;3.50;;
47912;SDS011;33676;51.006;17.180;2023-11-19T12:23:59;3.80;;;3.30;;
47912;SDS011;33676;51.006;17.180;2023-11-19T12:26:37;3.90;;;3.40;;
47912;SDS011;33676;51.006;17.180;2023-11-19T12:30:23;4.40;;;4.00;;
47912;SDS011;33676;51.006;17.180;2023-11-19T12:32:53;4.60;;;4.20;;
47912;SDS011;33676;51.006;17.180;2023-11-19T12:35:20;4.50;;;4.10;;
47912;SDS011;33676;51.006;17.180;2023-11-19T12:37:49;5.60;;;4.70;;
47912;SDS011;33676;51.006;17.180;2023-11-19T12:40:22;3.90;;;3.40;;
47912;SDS011;33676;51.006;17.180;2023-11-19T12:42:52;4.50;;;3.70;;
47912;SDS011;33676;51.006;17.180;2023-11-19T12:45:24;3.80;;;3.40;;
47912;SDS011;33676;51.006;17.180;2023-11-19T12:48:05;7.50;;;4.10;;
47912;SDS011;33676;51.006;17.180;2023-11-19T12:50:53;6.70;;;4.00;;
47912;SDS011;33676;51.006;17.180;2023-11-19T12:53:26;4.00;;;3.60;;
47912;SDS011;33676;51.006;17.180;2023-11-19T12:55:55;3.60;;;3.30;;
47912;SDS011;33676;51.006;17.180;2023-11-19T12:58:32;4.80;;;3.30;;
47912;SDS011;33676;51.006;17.180;2023-11-19T13:01:07;4.70;;;3.30;;
47912;SDS011;33676;51.006;17.180;2023-11-19T13:03:37;3.20;;;2.80;;
47912;SDS011;33676;51.006;17.180;2023-11-19T13:06:10;13.90;;;9.30;;
47912;SDS011;33676;51.006;17.180;2023-11-19T13:08:43;14.00;;;10.70;;
47912;SDS011;33676;51.006;17.180;2023-11-19T13:11:13;81.80;;;62.60;;
47912;SDS011;33676;51.006;17.180;2023-11-19T13:14:00;26.70;;;19.50;;
47912;SDS011;33676;51.006;17.180;2023-11-19T13:16:32;10.00;;;7.50;;
47912;SDS011;33676;51.006;17.180;2023-11-19T13:18:59;5.20;;;4.70;;
47912;SDS011;33676;51.006;17.180;2023-11-19T13:21:27;4.90;;;4.20;;
47912;SDS011;33676;51.006;17.180;2023-11-19T13:23:54;4.70;;;4.10;;
47912;SDS011;33676;51.006;17.180;2023-11-19T13:26:22;4.70;;;4.00;;
47912;SDS011;33676;51.006;17.180;2023-11-19T13:28:49;4.40;;;3.40;;
47912;SDS011;33676;51.006;17.180;2023-11-19T13:31:16;4.70;;;4.10;;
47912;SDS011;33676;51.006;17.180;2023-11-19T13:33:44;4.50;;;4.00;;
47912;SDS011;33676;51.006;17.180;2023-11-19T13:36:11;4.60;;;4.10;;
47912;SDS011;33676;51.006;17.180;2023-11-19T13:38:43;4.50;;;3.80;;
47912;SDS011;33676;51.006;17.180;2023-11-19T13:41:11;4.50;;;4.10;;
47912;SDS011;33676;51.006;17.180;2023-11-19T13:43:40;5.00;;;4.50;;
47912;SDS011;33676;51.006;17.180;2023-11-19T13:46:08;5.60;;;3.40;;
47912;SDS011;33676;51.006;17.180;2023-11-19T13:48:38;3.70;;;3.20;;
47912;SDS011;33676;51.006;17.180;2023-11-19T13:51:06;7.20;;;3.30;;
47912;SDS011;33676;51.006;17.180;2023-11-19T13:53:33;3.80;;;3.30;;
47912;SDS011;33676;51.006;17.180;2023-11-19T13:56:18;5.00;;;4.10;;
47912;SDS011;33676;51.006;17.180;2023-11-19T13:58:45;4.90;;;4.50;;
47912;SDS011;33676;51.006;17.180;2023-11-19T14:01:13;4.60;;;3.50;;
47912;SDS011;33676;51.006;17.180;2023-11-19T14:03:41;4.90;;;3.20;;
47912;SDS011;33676;51.006;17.180;2023-11-19T14:06:08;4.80;;;4.30;;
47912;SDS011;33676;51.006;17.180;2023-11-19T14:08:36;5.40;;;4.80;;
47912;SDS011;33676;51.006;17.180;2023-11-19T14:11:03;5.20;;;4.70;;
47912;SDS011;33676;51.006;17.180;2023-11-19T14:13:31;7.50;;;4.40;;
47912;SDS011;33676;51.006;17.180;2023-11-19T14:15:59;4.10;;;3.70;;
47912;SDS011;33676;51.006;17.180;2023-11-19T14:18:27;6.30;;;3.20;;
47912;SDS011;33676;51.006;17.180;2023-11-19T14:20:54;2.90;;;2.70;;
47912;SDS011;33676;51.006;17.180;2023-11-19T14:23:21;3.80;;;3.10;;
47912;SDS011;33676;51.006;17.180;2023-11-19T14:25:48;3.30;;;3.00;;
47912;SDS011;33676;51.006;17.180;2023-11-19T14:28:16;2.80;;;2.60;;
47912;SDS011;33676;51.006;17.180;2023-11-19T14:30:43;3.70;;;3.40;;
47912;SDS011;33676;51.006;17.180;2023-11-19T14:33:12;5.10;;;2.50;;
47912;SDS011;33676;51.006;17.180;2023-11-19T14:35:39;3.10;;;2.30;;
47912;SDS011;33676;51.006;17.180;2023-11-19T14:38:06;6.80;;;3.10;;
47912;SDS011;33676;51.006;17.180;2023-11-19T14:40:36;4.40;;;2.80;;
47912;SDS011;33676;51.006;17.180;2023-11-19T14:43:06;4.80;;;3.40;;
47912;SDS011;33676;51.006;17.180;2023-11-19T14:45:37;4.10;;;2.50;;
47912;SDS011;33676;51.006;17.180;2023-11-19T14:48:14;5.30;;;3.60;;
47912;SDS011;33676;51.006;17.180;2023-11-19T14:50:41;5.10;;;4.60;;
47912;SDS011;33676;51.006;17.180;2023-11-19T14:53:08;4.50;;;4.10;;
47912;SDS011;33676;51.006;17.180;2023-11-19T14:55:36;4.20;;;3.60;;
47912;SDS011;33676;51.006;17.180;2023-11-19T14:58:03;5.80;;;3.60;;
47912;SDS011;33676;51.006;17.180;2023-11-19T15:00:41;6.40;;;4.30;;
47912;SDS011;33676;51.006;17.180;2023-11-19T15:03:08;4.90;;;3.30;;
47912;SDS011;33676;51.006;17.180;2023-11-19T15:05:35;5.10;;;4.00;;
47912;SDS011;33676;51.006;17.180;2023-11-19T15:08:03;4.60;;;3.60;;
47912;SDS011;33676;51.006;17.180;2023-11-19T15:10:30;7.10;;;3.70;;
47912;SDS011;33676;51.006;17.180;2023-11-19T15:12:57;5.80;;;4.10;;
47912;SDS011;33676;51.006;17.180;2023-11-19T15:15:24;5.70;;;4.00;;
47912;SDS011;33676;51.006;17.180;2023-11-19T15:17:54;5.50;;;4.50;;
47912;SDS011;33676;51.006;17.180;2023-11-19T15:20:22;5.80;;;4.30;;
47912;SDS011;33676;51.006;17.180;2023-11-19T15:22:56;4.30;;;3.90;;
47912;SDS011;33676;51.006;17.180;2023-11-19T15:25:24;6.30;;;4.50;;
47912;SDS011;33676;51.006;17.180;2023-11-19T15:27:51;6.80;;;4.70;;
47912;SDS011;33676;51.006;17.180;2023-11-19T15:30:18;7.30;;;5.10;;
47912;SDS011;33676;51.006;17.180;2023-11-19T15:32:45;4.60;;;4.20;;
47912;SDS011;33676;51.006;17.180;2023-11-19T15:35:13;5.70;;;5.00;;
47912;SDS011;33676;51.006;17.180;2023-11-19T15:37:41;8.90;;;6.30;;
47912;SDS011;33676;51.006;17.180;2023-11-19T15:40:11;11.50;;;9.00;;
47912;SDS011;33676;51.006;17.180;2023-11-19T15:42:40;26.30;;;19.80;;
47912;SDS011;33676;51.006;17.180;2023-11-19T15:45:08;13.50;;;10.20;;
47912;SDS011;33676;51.006;17.180;2023-11-19T15:47:36;7.30;;;5.10;;
47912;SDS011;33676;51.006;17.180;2023-11-19T15:50:04;9.60;;;6.60;;
47912;SDS011;33676;51.006;17.180;2023-11-19T15:52:32;17.40;;;11.80;;
47912;SDS011;33676;51.006;17.180;2023-11-19T15:54:59;19.10;;;14.20;;
47912;SDS011;33676;51.006;17.180;2023-11-19T15:57:26;11.20;;;8.90;;
47912;SDS011;33676;51.006;17.180;2023-11-19T15:59:53;18.90;;;14.10;;
47912;SDS011;33676;51.006;17.180;2023-11-19T16:02:21;18.20;;;14.00;;
47912;SDS011;33676;51.006;17.180;2023-11-19T16:04:48;48.40;;;33.60;;
47912;SDS011;33676;51.006;17.180;2023-11-19T16:07:17;14.60;;;11.00;;
47912;SDS011;33676;51.006;17.180;2023-11-19T16:09:44;10.20;;;7.60;;
47912;SDS011;33676;51.006;17.180;2023-11-19T16:12:11;14.20;;;9.50;;
47912;SDS011;33676;51.006;17.180;2023-11-19T16:14:38;33.60;;;24.50;;
47912;SDS011;33676;51.006;17.180;2023-11-19T16:17:06;36.20;;;22.90;;
47912;SDS011;33676;51.006;17.180;2023-11-19T16:19:33;25.30;;;16.50;;
47912;SDS011;33676;51.006;17.180;2023-11-19T16:22:02;21.10;;;14.10;;
47912;SDS011;33676;51.006;17.180;2023-11-19T16:24:36;14.60;;;9.30;;
47912;SDS011;33676;51.006;17.180;2023-11-19T16:27:04;24.70;;;19.80;;